sensor_id;sensor_type;location;lat;lon;timestamp;P1;durP1;ratioP1;P2;durP2;ratioP2
7334;SDS011;3708;42.632;23.378;2024-02-28T00:01:02;24.60;;;10.00;;
7334;SDS011;3708;42.632;23.378;2024-02-28T00:03:49;18.38;;;8.82;;
7334;SDS011;3708;42.632;23.378;2024-02-28T00:06:18;23.50;;;10.35;;
7334;SDS011;3708;42.632;23.378;2024-02-28T00:08:43;19.23;;;9.38;;
7334;SDS011;3708;42.632;23.378;2024-02-28T00:11:09;17.55;;;9.18;;
7334;SDS011;3708;42.632;23.378;2024-02-28T00:13:35;20.20;;;8.85;;
7334;SDS011;3708;42.632;23.378;2024-02-28T00:16:01;18.77;;;9.27;;
7334;SDS011;3708;42.632;23.378;2024-02-28T00:18:26;20.20;;;9.95;;
7334;SDS011;3708;42.632;23.378;2024-02-28T00:20:52;24.45;;;9.73;;
7334;SDS011;3708;42.632;23.378;2024-02-28T00:23:19;19.75;;;8.85;;
7334;SDS011;3708;42.632;23.378;2024-02-28T00:25:46;22.23;;;10.85;;
7334;SDS011;3708;42.632;23.378;2024-02-28T00:28:11;18.83;;;9.38;;
7334;SDS011;3708;42.632;23.378;2024-02-28T00:30:37;17.65;;;9.90;;
7334;SDS011;3708;42.632;23.378;2024-02-28T00:33:02;22.30;;;10.25;;
7334;SDS011;3708;42.632;23.378;2024-02-28T00:35:32;26.95;;;10.57;;
7334;SDS011;3708;42.632;23.378;2024-02-28T00:38:00;18.38;;;9.95;;
7334;SDS011;3708;42.632;23.378;2024-02-28T00:40:26;18.73;;;9.07;;
7334;SDS011;3708;42.632;23.378;2024-02-28T00:42:53;16.52;;;10.35;;
7334;SDS011;3708;42.632;23.378;2024-02-28T00:45:19;20.85;;;10.32;;
7334;SDS011;3708;42.632;23.378;2024-02-28T00:47:45;22.00;;;10.18;;
7334;SDS011;3708;42.632;23.378;2024-02-28T00:50:11;17.58;;;10.10;;
7334;SDS011;3708;42.632;23.378;2024-02-28T00:52:37;21.98;;;10.63;;
7334;SDS011;3708;42.632;23.378;2024-02-28T00:55:02;26.52;;;10.45;;
7334;SDS011;3708;42.632;23.378;2024-02-28T00:57:30;19.63;;;10.52;;
7334;SDS011;3708;42.632;23.378;2024-02-28T00:59:56;20.48;;;10.13;;
7334;SDS011;3708;42.632;23.378;2024-02-28T01:02:21;18.95;;;10.65;;
7334;SDS011;3708;42.632;23.378;2024-02-28T01:04:47;22.08;;;10.15;;
7334;SDS011;3708;42.632;23.378;2024-02-28T01:07:12;28.13;;;11.65;;
7334;SDS011;3708;42.632;23.378;2024-02-28T01:09:38;19.88;;;11.43;;
7334;SDS011;3708;42.632;23.378;2024-02-28T01:12:04;25.00;;;11.27;;
7334;SDS011;3708;42.632;23.378;2024-02-28T01:14:29;20.15;;;10.80;;
7334;SDS011;3708;42.632;23.378;2024-02-28T01:16:55;22.75;;;10.35;;
7334;SDS011;3708;42.632;23.378;2024-02-28T01:19:20;23.55;;;11.55;;
7334;SDS011;3708;42.632;23.378;2024-02-28T01:21:46;18.95;;;10.93;;
7334;SDS011;3708;42.632;23.378;2024-02-28T01:24:11;23.65;;;10.50;;
7334;SDS011;3708;42.632;23.378;2024-02-28T01:26:37;18.58;;;9.38;;
7334;SDS011;3708;42.632;23.378;2024-02-28T01:29:03;19.05;;;10.02;;
7334;SDS011;3708;42.632;23.378;2024-02-28T01:31:28;25.08;;;11.05;;
7334;SDS011;3708;42.632;23.378;2024-02-28T01:33:54;26.65;;;11.13;;
7334;SDS011;3708;42.632;23.378;2024-02-28T01:36:20;20.27;;;10.57;;
7334;SDS011;3708;42.632;23.378;2024-02-28T01:38:46;23.13;;;10.35;;
7334;SDS011;3708;42.632;23.378;2024-02-28T01:41:12;24.77;;;10.25;;
7334;SDS011;3708;42.632;23.378;2024-02-28T01:43:38;22.40;;;10.02;;
7334;SDS011;3708;42.632;23.378;2024-02-28T01:46:04;24.35;;;10.38;;
7334;SDS011;3708;42.632;23.378;2024-02-28T01:48:43;17.33;;;10.15;;
7334;SDS011;3708;42.632;23.378;2024-02-28T01:51:08;19.38;;;10.13;;
7334;SDS011;3708;42.632;23.378;2024-02-28T01:53:34;24.08;;;11.25;;
7334;SDS011;3708;42.632;23.378;2024-02-28T01:55:59;22.90;;;10.48;;
7334;SDS011;3708;42.632;23.378;2024-02-28T01:58:25;22.27;;;11.25;;
7334;SDS011;3708;42.632;23.378;2024-02-28T02:00:51;22.77;;;11.02;;
7334;SDS011;3708;42.632;23.378;2024-02-28T02:03:18;22.15;;;10.05;;
7334;SDS011;3708;42.632;23.378;2024-02-28T02:05:43;25.00;;;10.52;;
7334;SDS011;3708;42.632;23.378;2024-02-28T02:08:09;29.50;;;10.77;;
7334;SDS011;3708;42.632;23.378;2024-02-28T02:10:35;24.70;;;10.88;;
7334;SDS011;3708;42.632;23.378;2024-02-28T02:13:04;21.48;;;10.30;;
7334;SDS011;3708;42.632;23.378;2024-02-28T02:15:32;20.85;;;10.90;;
7334;SDS011;3708;42.632;23.378;2024-02-28T02:17:58;24.75;;;11.32;;
7334;SDS011;3708;42.632;23.378;2024-02-28T02:20:24;20.48;;;10.10;;
7334;SDS011;3708;42.632;23.378;2024-02-28T02:22:51;29.27;;;11.90;;
7334;SDS011;3708;42.632;23.378;2024-02-28T02:25:18;24.60;;;9.75;;
7334;SDS011;3708;42.632;23.378;2024-02-28T02:27:43;21.40;;;10.68;;
7334;SDS011;3708;42.632;23.378;2024-02-28T02:30:09;22.50;;;10.93;;
7334;SDS011;3708;42.632;23.378;2024-02-28T02:32:35;20.92;;;10.35;;
7334;SDS011;3708;42.632;23.378;2024-02-28T02:35:01;24.02;;;10.50;;
7334;SDS011;3708;42.632;23.378;2024-02-28T02:37:27;19.05;;;11.02;;
7334;SDS011;3708;42.632;23.378;2024-02-28T02:39:52;25.52;;;11.23;;
7334;SDS011;3708;42.632;23.378;2024-02-28T02:42:18;22.30;;;11.57;;
7334;SDS011;3708;42.632;23.378;2024-02-28T02:44:44;21.02;;;11.57;;
7334;SDS011;3708;42.632;23.378;2024-02-28T02:47:09;23.88;;;10.60;;
7334;SDS011;3708;42.632;23.378;2024-02-28T02:49:35;23.90;;;10.68;;
7334;SDS011;3708;42.632;23.378;2024-02-28T02:52:01;24.73;;;10.85;;
7334;SDS011;3708;42.632;23.378;2024-02-28T02:54:26;21.08;;;10.40;;
7334;SDS011;3708;42.632;23.378;2024-02-28T02:56:52;21.67;;;10.27;;
7334;SDS011;3708;42.632;23.378;2024-02-28T02:59:17;23.17;;;10.07;;
7334;SDS011;3708;42.632;23.378;2024-02-28T03:01:46;20.88;;;10.02;;
7334;SDS011;3708;42.632;23.378;2024-02-28T03:04:12;19.00;;;10.18;;
7334;SDS011;3708;42.632;23.378;2024-02-28T03:06:37;25.67;;;10.68;;
7334;SDS011;3708;42.632;23.378;2024-02-28T03:09:03;21.58;;;9.85;;
7334;SDS011;3708;42.632;23.378;2024-02-28T03:11:28;17.13;;;9.55;;
7334;SDS011;3708;42.632;23.378;2024-02-28T03:13:54;27.05;;;10.90;;
7334;SDS011;3708;42.632;23.378;2024-02-28T03:16:19;18.48;;;9.98;;
7334;SDS011;3708;42.632;23.378;2024-02-28T03:18:45;24.95;;;10.45;;
7334;SDS011;3708;42.632;23.378;2024-02-28T03:21:10;22.27;;;9.88;;
7334;SDS011;3708;42.632;23.378;2024-02-28T03:23:36;24.85;;;10.32;;
7334;SDS011;3708;42.632;23.378;2024-02-28T03:26:02;24.55;;;9.95;;
7334;SDS011;3708;42.632;23.378;2024-02-28T03:28:28;22.25;;;10.60;;
7334;SDS011;3708;42.632;23.378;2024-02-28T03:30:54;24.48;;;10.68;;
7334;SDS011;3708;42.632;23.378;2024-02-28T03:33:19;26.10;;;10.65;;
7334;SDS011;3708;42.632;23.378;2024-02-28T03:35:45;27.70;;;10.35;;
7334;SDS011;3708;42.632;23.378;2024-02-28T03:38:11;21.15;;;10.73;;
7334;SDS011;3708;42.632;23.378;2024-02-28T03:40:36;24.63;;;10.85;;
7334;SDS011;3708;42.632;23.378;2024-02-28T03:43:02;26.38;;;10.88;;
7334;SDS011;3708;42.632;23.378;2024-02-28T03:45:28;21.35;;;9.75;;
7334;SDS011;3708;42.632;23.378;2024-02-28T03:47:54;23.55;;;11.65;;
7334;SDS011;3708;42.632;23.378;2024-02-28T03:50:20;25.20;;;10.55;;
7334;SDS011;3708;42.632;23.378;2024-02-28T03:52:45;21.23;;;9.98;;
7334;SDS011;3708;42.632;23.378;2024-02-28T03:55:11;26.52;;;11.27;;
7334;SDS011;3708;42.632;23.378;2024-02-28T03:57:36;23.15;;;10.48;;
7334;SDS011;3708;42.632;23.378;2024-02-28T04:00:02;23.38;;;11.63;;
7334;SDS011;3708;42.632;23.378;2024-02-28T04:02:30;19.00;;;9.57;;
7334;SDS011;3708;42.632;23.378;2024-02-28T04:04:55;20.92;;;10.30;;
7334;SDS011;3708;42.632;23.378;2024-02-28T04:07:21;21.25;;;10.18;;
7334;SDS011;3708;42.632;23.378;2024-02-28T04:09:46;18.88;;;9.93;;
7334;SDS011;3708;42.632;23.378;2024-02-28T04:12:12;23.27;;;10.55;;
7334;SDS011;3708;42.632;23.378;2024-02-28T04:14:38;20.45;;;10.40;;
7334;SDS011;3708;42.632;23.378;2024-02-28T04:17:04;21.35;;;10.27;;
7334;SDS011;3708;42.632;23.378;2024-02-28T04:19:32;21.50;;;10.70;;
7334;SDS011;3708;42.632;23.378;2024-02-28T04:22:01;18.17;;;9.60;;
7334;SDS011;3708;42.632;23.378;2024-02-28T04:24:26;24.15;;;11.32;;
7334;SDS011;3708;42.632;23.378;2024-02-28T04:26:52;27.83;;;10.40;;
7334;SDS011;3708;42.632;23.378;2024-02-28T04:29:18;24.15;;;10.30;;
7334;SDS011;3708;42.632;23.378;2024-02-28T04:31:44;30.60;;;12.18;;
7334;SDS011;3708;42.632;23.378;2024-02-28T04:34:09;25.33;;;12.27;;
7334;SDS011;3708;42.632;23.378;2024-02-28T04:36:35;29.17;;;11.57;;
7334;SDS011;3708;42.632;23.378;2024-02-28T04:39:00;26.17;;;10.63;;
7334;SDS011;3708;42.632;23.378;2024-02-28T04:41:27;25.80;;;10.98;;
7334;SDS011;3708;42.632;23.378;2024-02-28T04:43:53;25.67;;;10.40;;
7334;SDS011;3708;42.632;23.378;2024-02-28T04:46:19;22.48;;;10.27;;
7334;SDS011;3708;42.632;23.378;2024-02-28T04:48:44;25.40;;;10.68;;
7334;SDS011;3708;42.632;23.378;2024-02-28T04:51:10;22.60;;;9.35;;
7334;SDS011;3708;42.632;23.378;2024-02-28T04:53:35;21.30;;;10.57;;
7334;SDS011;3708;42.632;23.378;2024-02-28T04:56:01;21.55;;;9.18;;
7334;SDS011;3708;42.632;23.378;2024-02-28T04:58:27;22.30;;;9.70;;
7334;SDS011;3708;42.632;23.378;2024-02-28T05:00:52;25.30;;;9.90;;
7334;SDS011;3708;42.632;23.378;2024-02-28T05:03:18;17.98;;;10.30;;
7334;SDS011;3708;42.632;23.378;2024-02-28T05:05:44;26.13;;;10.27;;
7334;SDS011;3708;42.632;23.378;2024-02-28T05:08:09;20.85;;;10.52;;
7334;SDS011;3708;42.632;23.378;2024-02-28T05:10:35;18.83;;;8.85;;
7334;SDS011;3708;42.632;23.378;2024-02-28T05:13:00;21.67;;;8.30;;
7334;SDS011;3708;42.632;23.378;2024-02-28T05:15:28;17.38;;;8.57;;
7334;SDS011;3708;42.632;23.378;2024-02-28T05:17:53;21.90;;;8.77;;
7334;SDS011;3708;42.632;23.378;2024-02-28T05:20:19;17.25;;;8.77;;
7334;SDS011;3708;42.632;23.378;2024-02-28T05:22:44;16.02;;;9.60;;
7334;SDS011;3708;42.632;23.378;2024-02-28T05:25:10;20.63;;;8.88;;
7334;SDS011;3708;42.632;23.378;2024-02-28T05:27:35;27.95;;;10.70;;
7334;SDS011;3708;42.632;23.378;2024-02-28T05:30:01;21.77;;;9.98;;
7334;SDS011;3708;42.632;23.378;2024-02-28T05:32:27;15.93;;;8.70;;
7334;SDS011;3708;42.632;23.378;2024-02-28T05:34:52;20.65;;;9.02;;
7334;SDS011;3708;42.632;23.378;2024-02-28T05:37:18;14.90;;;8.07;;
7334;SDS011;3708;42.632;23.378;2024-02-28T05:39:43;21.30;;;9.45;;
7334;SDS011;3708;42.632;23.378;2024-02-28T05:42:09;17.77;;;9.43;;
7334;SDS011;3708;42.632;23.378;2024-02-28T05:44:34;24.55;;;10.00;;
7334;SDS011;3708;42.632;23.378;2024-02-28T05:47:00;19.23;;;9.55;;
7334;SDS011;3708;42.632;23.378;2024-02-28T05:49:26;20.90;;;9.25;;
7334;SDS011;3708;42.632;23.378;2024-02-28T05:51:51;14.88;;;8.38;;
7334;SDS011;3708;42.632;23.378;2024-02-28T05:54:18;17.70;;;9.35;;
7334;SDS011;3708;42.632;23.378;2024-02-28T05:56:44;14.70;;;8.32;;
7334;SDS011;3708;42.632;23.378;2024-02-28T05:59:09;16.77;;;8.05;;
7334;SDS011;3708;42.632;23.378;2024-02-28T06:01:35;16.13;;;8.00;;
7334;SDS011;3708;42.632;23.378;2024-02-28T06:04:01;17.85;;;8.35;;
7334;SDS011;3708;42.632;23.378;2024-02-28T06:06:27;13.73;;;8.25;;
7334;SDS011;3708;42.632;23.378;2024-02-28T06:08:53;18.05;;;8.40;;
7334;SDS011;3708;42.632;23.378;2024-02-28T06:11:18;18.90;;;8.75;;
7334;SDS011;3708;42.632;23.378;2024-02-28T06:13:44;19.00;;;8.15;;
7334;SDS011;3708;42.632;23.378;2024-02-28T06:16:13;16.52;;;7.25;;
7334;SDS011;3708;42.632;23.378;2024-02-28T06:18:40;17.13;;;8.63;;
7334;SDS011;3708;42.632;23.378;2024-02-28T06:21:06;17.27;;;7.72;;
7334;SDS011;3708;42.632;23.378;2024-02-28T06:23:31;18.40;;;9.00;;
7334;SDS011;3708;42.632;23.378;2024-02-28T06:25:57;16.92;;;8.52;;
7334;SDS011;3708;42.632;23.378;2024-02-28T06:28:22;16.35;;;9.38;;
7334;SDS011;3708;42.632;23.378;2024-02-28T06:30:48;18.45;;;8.20;;
7334;SDS011;3708;42.632;23.378;2024-02-28T06:33:14;17.05;;;8.80;;
7334;SDS011;3708;42.632;23.378;2024-02-28T06:35:39;17.88;;;9.38;;
7334;SDS011;3708;42.632;23.378;2024-02-28T06:38:06;18.75;;;9.55;;
7334;SDS011;3708;42.632;23.378;2024-02-28T06:42:57;17.60;;;7.80;;
7334;SDS011;3708;42.632;23.378;2024-02-28T06:45:23;19.27;;;9.20;;
7334;SDS011;3708;42.632;23.378;2024-02-28T06:47:49;23.65;;;9.68;;
7334;SDS011;3708;42.632;23.378;2024-02-28T06:52:41;22.13;;;9.07;;
7334;SDS011;3708;42.632;23.378;2024-02-28T06:55:07;29.75;;;11.48;;
7334;SDS011;3708;42.632;23.378;2024-02-28T06:57:37;20.95;;;8.90;;
7334;SDS011;3708;42.632;23.378;2024-02-28T07:00:06;24.20;;;10.68;;
7334;SDS011;3708;42.632;23.378;2024-02-28T07:02:34;19.42;;;10.50;;
7334;SDS011;3708;42.632;23.378;2024-02-28T07:05:02;24.92;;;10.63;;
7334;SDS011;3708;42.632;23.378;2024-02-28T07:07:29;26.83;;;10.38;;
7334;SDS011;3708;42.632;23.378;2024-02-28T07:10:02;25.98;;;11.63;;
7334;SDS011;3708;42.632;23.378;2024-02-28T07:12:29;24.40;;;11.25;;
7334;SDS011;3708;42.632;23.378;2024-02-28T07:14:55;28.98;;;11.43;;
7334;SDS011;3708;42.632;23.378;2024-02-28T07:17:20;23.27;;;11.85;;
7334;SDS011;3708;42.632;23.378;2024-02-28T07:19:46;24.30;;;11.32;;
7334;SDS011;3708;42.632;23.378;2024-02-28T07:22:11;29.30;;;12.82;;
7334;SDS011;3708;42.632;23.378;2024-02-28T07:24:37;25.92;;;12.55;;
7334;SDS011;3708;42.632;23.378;2024-02-28T07:27:03;26.42;;;11.70;;
7334;SDS011;3708;42.632;23.378;2024-02-28T07:29:29;25.02;;;11.35;;
7334;SDS011;3708;42.632;23.378;2024-02-28T07:31:54;28.83;;;10.73;;
7334;SDS011;3708;42.632;23.378;2024-02-28T07:34:20;24.50;;;12.45;;
7334;SDS011;3708;42.632;23.378;2024-02-28T07:36:45;23.15;;;10.98;;
7334;SDS011;3708;42.632;23.378;2024-02-28T07:39:11;22.17;;;10.07;;
7334;SDS011;3708;42.632;23.378;2024-02-28T07:41:40;28.98;;;10.35;;
7334;SDS011;3708;42.632;23.378;2024-02-28T07:44:07;22.65;;;10.77;;
7334;SDS011;3708;42.632;23.378;2024-02-28T07:48:58;25.42;;;10.68;;
7334;SDS011;3708;42.632;23.378;2024-02-28T07:51:26;19.40;;;10.25;;
7334;SDS011;3708;42.632;23.378;2024-02-28T07:53:51;21.92;;;11.15;;
7334;SDS011;3708;42.632;23.378;2024-02-28T07:56:17;26.58;;;10.68;;
7334;SDS011;3708;42.632;23.378;2024-02-28T07:58:44;24.70;;;11.13;;
7334;SDS011;3708;42.632;23.378;2024-02-28T08:01:10;26.85;;;11.95;;
7334;SDS011;3708;42.632;23.378;2024-02-28T08:03:36;22.70;;;10.10;;
7334;SDS011;3708;42.632;23.378;2024-02-28T08:06:02;21.15;;;10.57;;
7334;SDS011;3708;42.632;23.378;2024-02-28T08:08:28;22.27;;;11.32;;
7334;SDS011;3708;42.632;23.378;2024-02-28T08:10:53;19.63;;;10.18;;
7334;SDS011;3708;42.632;23.378;2024-02-28T08:13:19;22.33;;;10.40;;
7334;SDS011;3708;42.632;23.378;2024-02-28T08:15:45;22.08;;;10.35;;
7334;SDS011;3708;42.632;23.378;2024-02-28T08:18:11;20.10;;;10.20;;
7334;SDS011;3708;42.632;23.378;2024-02-28T08:20:37;19.38;;;9.77;;
7334;SDS011;3708;42.632;23.378;2024-02-28T08:23:06;18.80;;;9.93;;
7334;SDS011;3708;42.632;23.378;2024-02-28T08:25:31;15.27;;;9.10;;
7334;SDS011;3708;42.632;23.378;2024-02-28T08:27:57;17.70;;;9.63;;
7334;SDS011;3708;42.632;23.378;2024-02-28T08:30:23;14.23;;;8.85;;
7334;SDS011;3708;42.632;23.378;2024-02-28T08:32:48;20.23;;;9.30;;
7334;SDS011;3708;42.632;23.378;2024-02-28T08:35:14;16.08;;;9.05;;
7334;SDS011;3708;42.632;23.378;2024-02-28T08:37:40;21.67;;;9.75;;
7334;SDS011;3708;42.632;23.378;2024-02-28T08:40:06;15.93;;;8.32;;
7334;SDS011;3708;42.632;23.378;2024-02-28T08:42:33;16.88;;;8.80;;
7334;SDS011;3708;42.632;23.378;2024-02-28T08:44:59;19.65;;;10.85;;
7334;SDS011;3708;42.632;23.378;2024-02-28T08:47:25;18.17;;;9.15;;
7334;SDS011;3708;42.632;23.378;2024-02-28T08:49:53;17.10;;;10.10;;
7334;SDS011;3708;42.632;23.378;2024-02-28T08:52:19;17.30;;;9.27;;
7334;SDS011;3708;42.632;23.378;2024-02-28T08:54:45;18.98;;;10.38;;
7334;SDS011;3708;42.632;23.378;2024-02-28T08:57:11;17.27;;;8.93;;
7334;SDS011;3708;42.632;23.378;2024-02-28T08:59:37;17.35;;;9.10;;
7334;SDS011;3708;42.632;23.378;2024-02-28T09:02:02;18.00;;;9.07;;
7334;SDS011;3708;42.632;23.378;2024-02-28T09:04:29;16.98;;;8.93;;
7334;SDS011;3708;42.632;23.378;2024-02-28T09:06:54;19.42;;;9.55;;
7334;SDS011;3708;42.632;23.378;2024-02-28T09:09:20;17.17;;;9.23;;
7334;SDS011;3708;42.632;23.378;2024-02-28T09:11:46;17.08;;;9.48;;
7334;SDS011;3708;42.632;23.378;2024-02-28T09:14:11;15.65;;;8.23;;
7334;SDS011;3708;42.632;23.378;2024-02-28T09:16:37;14.60;;;8.73;;
7334;SDS011;3708;42.632;23.378;2024-02-28T09:19:03;21.10;;;10.20;;
7334;SDS011;3708;42.632;23.378;2024-02-28T09:21:29;17.50;;;9.07;;
7334;SDS011;3708;42.632;23.378;2024-02-28T09:23:55;17.60;;;9.15;;
7334;SDS011;3708;42.632;23.378;2024-02-28T09:26:21;17.40;;;9.02;;
7334;SDS011;3708;42.632;23.378;2024-02-28T09:28:46;14.23;;;8.90;;
7334;SDS011;3708;42.632;23.378;2024-02-28T09:31:12;16.00;;;9.85;;
7334;SDS011;3708;42.632;23.378;2024-02-28T09:33:38;19.00;;;9.95;;
7334;SDS011;3708;42.632;23.378;2024-02-28T09:36:04;17.90;;;9.65;;
7334;SDS011;3708;42.632;23.378;2024-02-28T09:38:30;18.42;;;9.25;;
7334;SDS011;3708;42.632;23.378;2024-02-28T09:40:57;19.52;;;9.65;;
7334;SDS011;3708;42.632;23.378;2024-02-28T09:43:31;22.27;;;9.82;;
7334;SDS011;3708;42.632;23.378;2024-02-28T09:46:03;22.27;;;10.27;;
7334;SDS011;3708;42.632;23.378;2024-02-28T09:48:30;22.25;;;9.90;;
7334;SDS011;3708;42.632;23.378;2024-02-28T09:51:02;19.98;;;10.77;;
7334;SDS011;3708;42.632;23.378;2024-02-28T09:53:28;16.58;;;9.43;;
7334;SDS011;3708;42.632;23.378;2024-02-28T09:55:54;17.60;;;9.07;;
7334;SDS011;3708;42.632;23.378;2024-02-28T10:00:48;17.00;;;8.63;;
7334;SDS011;3708;42.632;23.378;2024-02-28T10:03:17;17.95;;;7.97;;
7334;SDS011;3708;42.632;23.378;2024-02-28T10:05:47;14.80;;;8.55;;
7334;SDS011;3708;42.632;23.378;2024-02-28T10:10:46;17.30;;;8.23;;
7334;SDS011;3708;42.632;23.378;2024-02-28T10:13:12;14.95;;;8.50;;
7334;SDS011;3708;42.632;23.378;2024-02-28T10:15:38;19.52;;;8.23;;
7334;SDS011;3708;42.632;23.378;2024-02-28T10:20:32;14.90;;;8.02;;
7334;SDS011;3708;42.632;23.378;2024-02-28T10:22:58;15.68;;;7.50;;
7334;SDS011;3708;42.632;23.378;2024-02-28T10:25:24;16.73;;;7.72;;
7334;SDS011;3708;42.632;23.378;2024-02-28T10:27:51;14.02;;;6.57;;
7334;SDS011;3708;42.632;23.378;2024-02-28T10:32:49;14.32;;;6.70;;
7334;SDS011;3708;42.632;23.378;2024-02-28T10:35:16;13.35;;;7.35;;
7334;SDS011;3708;42.632;23.378;2024-02-28T10:37:44;13.57;;;8.13;;
7334;SDS011;3708;42.632;23.378;2024-02-28T10:40:12;15.05;;;7.50;;
7334;SDS011;3708;42.632;23.378;2024-02-28T10:42:39;20.80;;;7.88;;
7334;SDS011;3708;42.632;23.378;2024-02-28T10:45:07;13.18;;;7.03;;
7334;SDS011;3708;42.632;23.378;2024-02-28T10:47:37;15.45;;;7.25;;
7334;SDS011;3708;42.632;23.378;2024-02-28T10:50:03;10.88;;;6.80;;
7334;SDS011;3708;42.632;23.378;2024-02-28T10:52:29;10.20;;;6.15;;
7334;SDS011;3708;42.632;23.378;2024-02-28T10:54:58;7.43;;;5.57;;
7334;SDS011;3708;42.632;23.378;2024-02-28T10:57:27;12.30;;;5.75;;
7334;SDS011;3708;42.632;23.378;2024-02-28T10:59:54;12.95;;;6.28;;
7334;SDS011;3708;42.632;23.378;2024-02-28T11:02:21;11.88;;;6.07;;
7334;SDS011;3708;42.632;23.378;2024-02-28T11:04:51;6.97;;;5.47;;
7334;SDS011;3708;42.632;23.378;2024-02-28T11:07:21;9.50;;;6.22;;
7334;SDS011;3708;42.632;23.378;2024-02-28T11:09:47;6.75;;;5.28;;
7334;SDS011;3708;42.632;23.378;2024-02-28T11:12:23;6.97;;;4.90;;
7334;SDS011;3708;42.632;23.378;2024-02-28T11:15:00;8.27;;;4.45;;
7334;SDS011;3708;42.632;23.378;2024-02-28T11:17:30;9.23;;;5.03;;
7334;SDS011;3708;42.632;23.378;2024-02-28T11:19:57;7.55;;;4.55;;
7334;SDS011;3708;42.632;23.378;2024-02-28T11:24:48;6.53;;;4.03;;
7334;SDS011;3708;42.632;23.378;2024-02-28T11:27:15;6.13;;;4.00;;
7334;SDS011;3708;42.632;23.378;2024-02-28T11:29:41;8.48;;;4.53;;
7334;SDS011;3708;42.632;23.378;2024-02-28T11:32:07;8.55;;;4.60;;
7334;SDS011;3708;42.632;23.378;2024-02-28T11:37:02;12.85;;;4.72;;
7334;SDS011;3708;42.632;23.378;2024-02-28T11:39:28;10.93;;;4.88;;
7334;SDS011;3708;42.632;23.378;2024-02-28T11:42:07;7.43;;;4.40;;
7334;SDS011;3708;42.632;23.378;2024-02-28T11:44:34;6.18;;;4.72;;
7334;SDS011;3708;42.632;23.378;2024-02-28T11:46:59;8.45;;;4.53;;
7334;SDS011;3708;42.632;23.378;2024-02-28T11:49:25;11.73;;;5.07;;
7334;SDS011;3708;42.632;23.378;2024-02-28T11:51:51;8.10;;;5.60;;
7334;SDS011;3708;42.632;23.378;2024-02-28T11:54:16;10.65;;;5.53;;
7334;SDS011;3708;42.632;23.378;2024-02-28T11:56:42;7.78;;;5.10;;
7334;SDS011;3708;42.632;23.378;2024-02-28T11:59:08;10.07;;;5.15;;
7334;SDS011;3708;42.632;23.378;2024-02-28T12:01:36;5.75;;;4.15;;
7334;SDS011;3708;42.632;23.378;2024-02-28T12:04:08;6.93;;;4.60;;
7334;SDS011;3708;42.632;23.378;2024-02-28T12:06:35;8.05;;;5.32;;
7334;SDS011;3708;42.632;23.378;2024-02-28T12:09:05;10.05;;;5.65;;
7334;SDS011;3708;42.632;23.378;2024-02-28T12:11:33;10.45;;;6.13;;
7334;SDS011;3708;42.632;23.378;2024-02-28T12:14:02;8.18;;;5.50;;
7334;SDS011;3708;42.632;23.378;2024-02-28T12:16:29;7.75;;;5.85;;
7334;SDS011;3708;42.632;23.378;2024-02-28T12:18:55;9.10;;;6.05;;
7334;SDS011;3708;42.632;23.378;2024-02-28T12:23:46;9.50;;;6.10;;
7334;SDS011;3708;42.632;23.378;2024-02-28T12:26:18;13.30;;;7.28;;
7334;SDS011;3708;42.632;23.378;2024-02-28T12:28:44;12.50;;;6.63;;
7334;SDS011;3708;42.632;23.378;2024-02-28T12:31:10;11.23;;;6.13;;
7334;SDS011;3708;42.632;23.378;2024-02-28T12:33:37;14.07;;;6.38;;
7334;SDS011;3708;42.632;23.378;2024-02-28T12:36:03;9.18;;;6.03;;
7334;SDS011;3708;42.632;23.378;2024-02-28T12:38:29;10.25;;;6.10;;
7334;SDS011;3708;42.632;23.378;2024-02-28T12:40:56;10.38;;;6.40;;
7334;SDS011;3708;42.632;23.378;2024-02-28T12:43:22;12.85;;;5.63;;
7334;SDS011;3708;42.632;23.378;2024-02-28T12:45:47;10.23;;;5.65;;
7334;SDS011;3708;42.632;23.378;2024-02-28T12:48:13;7.88;;;5.25;;
7334;SDS011;3708;42.632;23.378;2024-02-28T12:50:38;16.50;;;6.63;;
7334;SDS011;3708;42.632;23.378;2024-02-28T12:53:04;6.97;;;4.82;;
7334;SDS011;3708;42.632;23.378;2024-02-28T12:55:30;11.70;;;5.70;;
7334;SDS011;3708;42.632;23.378;2024-02-28T12:57:56;9.73;;;5.65;;
7334;SDS011;3708;42.632;23.378;2024-02-28T13:00:22;8.45;;;5.10;;
7334;SDS011;3708;42.632;23.378;2024-02-28T13:02:47;14.10;;;5.30;;
7334;SDS011;3708;42.632;23.378;2024-02-28T13:05:13;8.45;;;5.50;;
7334;SDS011;3708;42.632;23.378;2024-02-28T13:07:38;8.57;;;5.15;;
7334;SDS011;3708;42.632;23.378;2024-02-28T13:10:05;9.55;;;5.47;;
7334;SDS011;3708;42.632;23.378;2024-02-28T13:12:31;9.00;;;5.53;;
7334;SDS011;3708;42.632;23.378;2024-02-28T13:14:57;9.02;;;5.57;;
7334;SDS011;3708;42.632;23.378;2024-02-28T13:17:24;8.38;;;5.60;;
7334;SDS011;3708;42.632;23.378;2024-02-28T13:19:50;7.55;;;5.18;;
7334;SDS011;3708;42.632;23.378;2024-02-28T13:22:16;6.38;;;4.72;;
7334;SDS011;3708;42.632;23.378;2024-02-28T13:24:42;8.38;;;4.65;;
7334;SDS011;3708;42.632;23.378;2024-02-28T13:27:07;6.03;;;4.47;;
7334;SDS011;3708;42.632;23.378;2024-02-28T13:29:34;7.15;;;4.97;;
7334;SDS011;3708;42.632;23.378;2024-02-28T13:32:00;11.60;;;4.90;;
7334;SDS011;3708;42.632;23.378;2024-02-28T13:34:26;9.73;;;5.35;;
7334;SDS011;3708;42.632;23.378;2024-02-28T13:39:17;6.90;;;4.85;;
7334;SDS011;3708;42.632;23.378;2024-02-28T13:44:08;6.50;;;5.32;;
7334;SDS011;3708;42.632;23.378;2024-02-28T13:49:00;6.75;;;4.63;;
7334;SDS011;3708;42.632;23.378;2024-02-28T13:53:51;8.27;;;4.75;;
7334;SDS011;3708;42.632;23.378;2024-02-28T13:56:19;12.73;;;5.78;;
7334;SDS011;3708;42.632;23.378;2024-02-28T13:58:44;9.57;;;5.25;;
7334;SDS011;3708;42.632;23.378;2024-02-28T14:03:38;12.52;;;6.38;;
7334;SDS011;3708;42.632;23.378;2024-02-28T14:06:04;8.15;;;5.10;;
7334;SDS011;3708;42.632;23.378;2024-02-28T14:10:55;9.55;;;4.55;;
7334;SDS011;3708;42.632;23.378;2024-02-28T14:15:46;5.95;;;4.38;;
7334;SDS011;3708;42.632;23.378;2024-02-28T14:18:12;12.93;;;5.55;;
7334;SDS011;3708;42.632;23.378;2024-02-28T14:20:38;9.27;;;5.63;;
7334;SDS011;3708;42.632;23.378;2024-02-28T14:23:06;10.10;;;5.68;;
7334;SDS011;3708;42.632;23.378;2024-02-28T14:25:32;10.73;;;5.85;;
7334;SDS011;3708;42.632;23.378;2024-02-28T14:27:58;9.90;;;6.00;;
7334;SDS011;3708;42.632;23.378;2024-02-28T14:32:49;10.18;;;4.68;;
7334;SDS011;3708;42.632;23.378;2024-02-28T14:35:15;6.68;;;4.38;;
7334;SDS011;3708;42.632;23.378;2024-02-28T14:37:40;8.50;;;5.32;;
7334;SDS011;3708;42.632;23.378;2024-02-28T14:40:07;10.55;;;5.35;;
7334;SDS011;3708;42.632;23.378;2024-02-28T14:42:40;10.35;;;5.57;;
7334;SDS011;3708;42.632;23.378;2024-02-28T14:45:11;12.00;;;5.38;;
7334;SDS011;3708;42.632;23.378;2024-02-28T14:47:40;16.77;;;5.78;;
7334;SDS011;3708;42.632;23.378;2024-02-28T14:50:06;12.45;;;5.68;;
7334;SDS011;3708;42.632;23.378;2024-02-28T14:52:36;7.68;;;5.55;;
7334;SDS011;3708;42.632;23.378;2024-02-28T14:55:03;12.15;;;6.10;;
7334;SDS011;3708;42.632;23.378;2024-02-28T14:57:29;14.77;;;6.60;;
7334;SDS011;3708;42.632;23.378;2024-02-28T14:59:56;14.90;;;6.18;;
7334;SDS011;3708;42.632;23.378;2024-02-28T15:02:22;8.88;;;5.55;;
7334;SDS011;3708;42.632;23.378;2024-02-28T15:04:47;15.55;;;5.75;;
7334;SDS011;3708;42.632;23.378;2024-02-28T15:07:14;7.95;;;5.07;;
7334;SDS011;3708;42.632;23.378;2024-02-28T15:09:40;7.57;;;5.10;;
7334;SDS011;3708;42.632;23.378;2024-02-28T15:12:06;8.90;;;4.90;;
7334;SDS011;3708;42.632;23.378;2024-02-28T15:16:58;9.93;;;5.78;;
7334;SDS011;3708;42.632;23.378;2024-02-28T15:19:24;12.15;;;6.68;;
7334;SDS011;3708;42.632;23.378;2024-02-28T15:21:52;17.98;;;6.32;;
7334;SDS011;3708;42.632;23.378;2024-02-28T15:24:18;12.05;;;6.53;;
7334;SDS011;3708;42.632;23.378;2024-02-28T15:26:44;15.27;;;6.82;;